createdAt,value
2019-05-30T00:01:42.610Z,101385.30
2019-05-30T00:06:45.060Z,101394.14
2019-05-30T00:11:47.519Z,101388.23
2019-05-30T00:16:50.035Z,101393.45
2019-05-30T00:21:52.515Z,101392.86
2019-05-30T00:26:56.201Z,101392.33
2019-05-30T00:31:57.518Z,101385.94
2019-05-30T00:36:59.935Z,101382.81
2019-05-30T00:42:02.355Z,101385.12
2019-05-30T00:47:04.820Z,101386.05
2019-05-30T00:52:07.279Z,101388.34
2019-05-30T00:57:12.386Z,101390.58
2019-05-30T01:02:14.850Z,101388.05
2019-05-30T01:07:17.298Z,101381.66
2019-05-30T01:12:19.757Z,101378.71
2019-05-30T01:17:22.228Z,101375.71
2019-05-30T01:22:24.688Z,101374.74
2019-05-30T01:27:27.133Z,101374.80
2019-05-30T01:32:29.599Z,101374.91
2019-05-30T01:37:32.037Z,101372.91
2019-05-30T01:42:34.498Z,101362.28
2019-05-30T01:47:37.053Z,101369.87
2019-05-30T01:52:39.505Z,101361.52
2019-05-30T01:57:41.955Z,101361.25
2019-05-30T02:02:44.405Z,101361.71
2019-05-30T02:07:46.855Z,101362.23
2019-05-30T02:12:49.306Z,101362.28
2019-05-30T02:17:51.761Z,101365.13
2019-05-30T02:22:54.271Z,101375.56
2019-05-30T02:27:56.672Z,101375.36
2019-05-30T02:33:00.591Z,101368.85
2019-05-30T02:38:03.097Z,101377.08
2019-05-30T02:43:05.662Z,101378.03
2019-05-30T02:48:07.354Z,101373.32
2019-05-30T02:53:10.936Z,101376.00
2019-05-30T02:58:12.903Z,101370.45
2019-05-30T03:03:14.832Z,101379.04
2019-05-30T03:08:16.331Z,101383.97
2019-05-30T03:13:18.804Z,101383.61
2019-05-30T03:18:21.281Z,101390.88
2019-05-30T03:23:23.792Z,101391.63
2019-05-30T03:28:26.256Z,101403.20
2019-05-30T03:33:39.504Z,101406.19
2019-05-30T03:38:31.215Z,101410.59
2019-05-30T03:43:33.851Z,101418.42
2019-05-30T03:48:36.313Z,101424.58
2019-05-30T03:53:38.773Z,101422.35
2019-05-30T03:58:46.914Z,101418.84
2019-05-30T04:04:09.326Z,101431.37
2019-05-30T04:09:11.826Z,101429.76
2019-05-30T04:14:13.298Z,101436.52
2019-05-30T04:19:17.127Z,101438.78
2019-05-30T04:24:17.573Z,101443.47
2019-05-30T04:29:20.018Z,101448.58
2019-05-30T04:34:22.491Z,101454.50
2019-05-30T04:39:24.972Z,101462.64
2019-05-30T04:44:27.437Z,101466.45
2019-05-30T04:49:29.903Z,101460.19
2019-05-30T04:54:32.373Z,101465.44
2019-05-30T04:59:34.829Z,101467.75
2019-05-30T05:04:37.303Z,101465.34
2019-05-30T05:09:39.777Z,101468.09
2019-05-30T05:14:42.253Z,101476.30
2019-05-30T05:19:44.711Z,101477.18
2019-05-30T05:24:47.179Z,101485.65
2019-05-30T05:29:49.639Z,101489.67
2019-05-30T05:34:52.277Z,101490.19
2019-05-30T05:39:54.571Z,101496.22
2019-05-30T05:44:57.037Z,101496.71
2019-05-30T05:49:59.506Z,101501.21
2019-05-30T05:55:02.042Z,101510.47
2019-05-30T06:00:07.468Z,101512.20
2019-05-30T06:05:09.923Z,101515.23
2019-05-30T06:10:12.408Z,101517.34
2019-05-30T06:15:14.879Z,101515.06
2019-05-30T06:20:17.498Z,101517.82
2019-05-30T06:25:23.765Z,101530.36
2019-05-30T06:30:22.439Z,101532.02
2019-05-30T06:35:25.064Z,101527.59
2019-05-30T06:40:30.388Z,101531.94
2019-05-30T06:45:30.399Z,101534.31
2019-05-30T06:50:32.253Z,101547.98
2019-05-30T06:55:34.700Z,101553.79
2019-05-30T07:00:37.183Z,101549.00
2019-05-30T07:05:40.191Z,101549.19
2019-05-30T07:10:42.111Z,101547.81
2019-05-30T07:15:44.598Z,101553.41
2019-05-30T07:20:47.062Z,101556.89
2019-05-30T07:25:49.531Z,101552.93
2019-05-30T07:30:52.006Z,101560.22
2019-05-30T07:35:54.452Z,101560.28
2019-05-30T07:40:57.035Z,101561.28
2019-05-30T07:45:59.499Z,101560.84
2019-05-30T07:51:01.970Z,101555.55
2019-05-30T07:56:04.461Z,101559.30
2019-05-30T08:01:06.989Z,101554.05
2019-05-30T08:06:09.501Z,101559.66
2019-05-30T08:11:11.966Z,101548.97
2019-05-30T08:16:14.426Z,101543.10
2019-05-30T08:21:16.894Z,101549.00
2019-05-30T08:26:19.356Z,101543.45
2019-05-30T08:31:21.813Z,101534.91
2019-05-30T08:36:24.271Z,101540.84
2019-05-30T08:41:26.729Z,101550.33
2019-05-30T08:46:30.243Z,101539.56
2019-05-30T08:51:32.183Z,101539.60
2019-05-30T08:56:34.533Z,101530.72
2019-05-30T09:01:37.707Z,101528.98
2019-05-30T09:06:39.943Z,101520.06
2019-05-30T09:11:42.317Z,101507.11
2019-05-30T09:16:45.909Z,101513.22
2019-05-30T09:21:47.476Z,101492.39
2019-05-30T09:26:50.482Z,101471.84
2019-05-30T09:31:51.534Z,101495.89
2019-05-30T09:36:53.997Z,101478.08
2019-05-30T09:41:56.456Z,101472.80
2019-05-30T09:46:58.909Z,101474.35
2019-05-30T09:52:01.387Z,101451.37
2019-05-30T09:57:03.845Z,101431.20
2019-05-30T10:02:06.420Z,101442.80
2019-05-30T10:07:09.106Z,101441.94
2019-05-30T10:12:11.569Z,101414.72
2019-05-30T10:17:14.028Z,101408.20
2019-05-30T10:22:16.513Z,101390.30
2019-05-30T10:27:18.973Z,101390.63
2019-05-30T10:32:21.444Z,101407.17
2019-05-30T10:37:23.915Z,101394.28
2019-05-30T10:47:45.812Z,101404.81
2019-05-30T10:52:47.195Z,101393.63
2019-05-30T10:57:49.944Z,101401.28
2019-05-30T11:02:51.309Z,101392.11
2019-05-30T11:08:01.886Z,101383.87
2019-05-30T11:13:03.413Z,101388.34
2019-05-30T11:17:58.482Z,101372.81
2019-05-30T11:23:01.570Z,101374.73
2019-05-30T11:28:03.965Z,101373.84
2019-05-30T11:33:06.569Z,101364.45
2019-05-30T11:38:09.025Z,101361.32
2019-05-30T11:43:11.501Z,101353.02
2019-05-30T11:48:13.961Z,101356.13
2019-05-30T11:53:19.345Z,101356.36
2019-05-30T11:58:21.828Z,101351.95
2019-05-30T12:03:24.310Z,101358.91
2019-05-30T12:08:26.950Z,101351.06
2019-05-30T12:13:29.614Z,101357.23
2019-05-30T12:18:32.057Z,101355.58
2019-05-30T12:23:34.606Z,101353.23
2019-05-30T12:28:37.317Z,101350.92
2019-05-30T12:33:40.058Z,101352.56
2019-05-30T12:38:42.662Z,101349.70
2019-05-30T12:43:45.062Z,101349.89
2019-05-30T12:48:47.526Z,101345.80
2019-05-30T12:53:49.998Z,101340.03
2019-05-30T12:58:52.457Z,101344.94
2019-05-30T13:03:55.053Z,101343.70
2019-05-30T13:08:57.459Z,101348.94
2019-05-30T13:14:00.668Z,101350.66
2019-05-30T13:19:02.403Z,101352.73
2019-05-30T13:24:06.053Z,101360.83
2019-05-30T13:29:07.342Z,101356.97
2019-05-30T13:34:09.800Z,101356.33
2019-05-30T13:39:12.282Z,101353.66
2019-05-30T13:44:14.777Z,101359.06
2019-05-30T13:49:17.258Z,101355.20
2019-05-30T13:54:19.727Z,101357.83
2019-05-30T13:59:22.194Z,101347.97
2019-05-30T14:04:24.637Z,101348.70
2019-05-30T14:09:27.129Z,101354.02
2019-05-30T14:14:29.612Z,101348.58
2019-05-30T14:19:32.069Z,101355.11
2019-05-30T14:24:34.564Z,101351.59
2019-05-30T14:29:37.022Z,101362.12
2019-05-30T14:34:39.508Z,101356.05
2019-05-30T14:39:41.975Z,101353.55
2019-05-30T14:44:44.449Z,101359.91
2019-05-30T14:49:46.918Z,101348.66
2019-05-30T14:54:49.396Z,101349.74
2019-05-30T14:59:51.870Z,101356.11
2019-05-30T15:04:54.325Z,101368.75
2019-05-30T15:09:56.818Z,101355.50
2019-05-30T15:14:59.276Z,101357.08
2019-05-30T15:20:01.819Z,101353.96
2019-05-30T15:25:04.239Z,101355.87
2019-05-30T15:30:10.568Z,101360.96
2019-05-30T15:35:12.842Z,101357.12
2019-05-30T15:40:15.187Z,101353.77
2019-05-30T15:45:18.143Z,101355.69
2019-05-30T15:50:20.106Z,101350.45
2019-05-30T15:55:23.354Z,101356.13
2019-05-30T16:00:25.052Z,101346.27
2019-05-30T16:05:27.531Z,101362.91
2019-05-30T16:10:30.006Z,101360.92
2019-05-30T16:15:32.478Z,101358.56
2019-05-30T16:20:34.981Z,101360.77
2019-05-30T16:25:37.438Z,101358.33
2019-05-30T16:30:39.918Z,101359.72
2019-05-30T16:35:42.413Z,101352.55
2019-05-30T16:40:44.876Z,101352.37
2019-05-30T16:45:47.331Z,101357.66
2019-05-30T16:50:49.812Z,101354.64
2019-05-30T16:55:52.283Z,101356.72
2019-05-30T17:00:54.743Z,101356.16
2019-05-30T17:05:57.528Z,101351.17
2019-05-30T17:10:59.664Z,101350.94
2019-05-30T17:16:02.221Z,101352.84
2019-05-30T17:21:04.641Z,101349.53
2019-05-30T17:26:07.094Z,101356.69
2019-05-30T17:31:09.569Z,101351.94
2019-05-30T17:36:12.030Z,101351.95
2019-05-30T17:41:14.518Z,101354.63
2019-05-30T17:46:23.289Z,101362.81
2019-05-30T17:51:23.756Z,101364.31
2019-05-30T17:56:26.140Z,101359.13
2019-05-30T18:01:28.433Z,101362.80
2019-05-30T18:06:30.814Z,101356.77
2019-05-30T18:11:32.560Z,101359.42
2019-05-30T18:16:35.020Z,101369.04
2019-05-30T18:21:37.471Z,101376.81
2019-05-30T18:26:39.922Z,101380.06
2019-05-30T18:31:42.389Z,101379.85
2019-05-30T18:36:44.900Z,101378.55
2019-05-30T18:41:47.347Z,101385.53
2019-05-30T18:46:49.814Z,101393.06
2019-05-30T18:51:52.290Z,101394.13
2019-05-30T18:56:54.885Z,101400.13
2019-05-30T19:01:57.551Z,101396.45
2019-05-30T19:07:00.053Z,101393.36
2019-05-30T19:12:02.518Z,101397.66
2019-05-30T19:17:04.996Z,101405.86
2019-05-30T19:22:07.465Z,101406.28
2019-05-30T19:27:09.951Z,101413.15
2019-05-30T19:32:12.392Z,101422.56
2019-05-30T19:37:14.906Z,101427.79
2019-05-30T19:42:17.461Z,101432.08
2019-05-30T19:47:19.942Z,101436.50
2019-05-30T19:52:22.416Z,101436.52
2019-05-30T19:57:24.904Z,101439.36
2019-05-30T20:02:27.375Z,101437.42
2019-05-30T20:07:30.450Z,101440.20
2019-05-30T20:12:32.684Z,101441.70
2019-05-30T20:17:35.472Z,101455.23
2019-05-30T20:22:38.221Z,101444.53
2019-05-30T20:27:40.905Z,101452.23
2019-05-30T20:32:43.274Z,101453.51
2019-05-30T20:37:44.740Z,101453.63
2019-05-30T20:42:47.211Z,101456.88
2019-05-30T20:47:49.738Z,101454.33
2019-05-30T20:52:52.244Z,101465.50
2019-05-30T20:57:54.762Z,101467.28
2019-05-30T21:02:57.237Z,101474.25
2019-05-30T21:07:59.722Z,101461.16
2019-05-30T21:13:02.203Z,101474.69
2019-05-30T21:18:04.665Z,101476.12
2019-05-30T21:23:07.158Z,101487.05
2019-05-30T21:28:09.662Z,101486.45
2019-05-30T21:33:12.227Z,101495.14
2019-05-30T21:38:14.623Z,101491.77
2019-05-30T21:43:17.100Z,101484.43
2019-05-30T21:48:19.574Z,101496.69
2019-05-30T21:53:22.057Z,101489.55
2019-05-30T21:58:24.515Z,101494.91
2019-05-30T22:03:26.988Z,101501.41
2019-05-30T22:08:29.457Z,101499.61
2019-05-30T22:13:31.919Z,101499.90
2019-05-30T22:18:34.398Z,101499.30
2019-05-30T22:23:36.865Z,101499.97
2019-05-30T22:28:39.366Z,101501.64
2019-05-30T22:33:42.653Z,101502.16
2019-05-30T22:38:44.835Z,101498.00
2019-05-30T22:43:46.754Z,101491.42
2019-05-30T22:48:50.438Z,101491.70
2019-05-30T22:53:52.832Z,101489.47
2019-05-30T22:58:54.191Z,101483.66
2019-05-30T23:03:57.615Z,101487.63
2019-05-30T23:08:59.116Z,101490.89
2019-05-30T23:14:01.572Z,101487.75
2019-05-30T23:19:04.034Z,101482.38
2019-05-30T23:24:06.476Z,101491.56
2019-05-30T23:29:08.945Z,101493.63
2019-05-30T23:34:11.417Z,101500.53
2019-05-30T23:39:13.893Z,101491.00
2019-05-30T23:44:16.349Z,101487.81
2019-05-30T23:49:18.818Z,101487.58
2019-05-30T23:54:21.326Z,101484.06
2019-05-30T23:59:23.783Z,101476.98
